sensor_id;sensor_type;location;lat;lon;timestamp;temperature;humidity
47174;DHT22;36730;49.036;9.094;2022-10-22T00:00:51;25.70;76.40
47174;DHT22;36730;49.036;9.094;2022-10-22T00:03:17;25.70;76.00
47174;DHT22;36730;49.036;9.094;2022-10-22T00:05:42;25.70;75.90
47174;DHT22;36730;49.036;9.094;2022-10-22T00:08:08;25.70;75.90
47174;DHT22;36730;49.036;9.094;2022-10-22T00:10:33;25.70;75.90
47174;DHT22;36730;49.036;9.094;2022-10-22T00:12:59;25.60;75.50
47174;DHT22;36730;49.036;9.094;2022-10-22T00:15:24;25.70;75.80
47174;DHT22;36730;49.036;9.094;2022-10-22T00:17:50;25.70;75.90
47174;DHT22;36730;49.036;9.094;2022-10-22T00:20:16;25.70;75.70
47174;DHT22;36730;49.036;9.094;2022-10-22T00:22:41;25.60;75.90
47174;DHT22;36730;49.036;9.094;2022-10-22T00:25:07;25.70;75.60
47174;DHT22;36730;49.036;9.094;2022-10-22T00:27:33;25.70;75.60
47174;DHT22;36730;49.036;9.094;2022-10-22T00:29:58;25.70;75.60
47174;DHT22;36730;49.036;9.094;2022-10-22T00:32:24;25.60;75.40
47174;DHT22;36730;49.036;9.094;2022-10-22T00:34:49;25.60;75.30
47174;DHT22;36730;49.036;9.094;2022-10-22T00:37:15;25.60;75.30
47174;DHT22;36730;49.036;9.094;2022-10-22T00:39:40;25.60;75.50
47174;DHT22;36730;49.036;9.094;2022-10-22T00:42:06;25.60;75.60
47174;DHT22;36730;49.036;9.094;2022-10-22T00:47:43;25.60;75.20
47174;DHT22;36730;49.036;9.094;2022-10-22T00:50:15;25.60;75.00
47174;DHT22;36730;49.036;9.094;2022-10-22T00:52:41;25.60;75.30
47174;DHT22;36730;49.036;9.094;2022-10-22T00:55:07;25.60;75.00
47174;DHT22;36730;49.036;9.094;2022-10-22T00:57:34;25.60;74.90
47174;DHT22;36730;49.036;9.094;2022-10-22T01:00:00;25.60;75.00
47174;DHT22;36730;49.036;9.094;2022-10-22T01:02:26;25.60;74.60
47174;DHT22;36730;49.036;9.094;2022-10-22T01:04:52;25.60;75.10
47174;DHT22;36730;49.036;9.094;2022-10-22T01:07:19;25.60;74.80
47174;DHT22;36730;49.036;9.094;2022-10-22T01:09:52;25.50;74.60
47174;DHT22;36730;49.036;9.094;2022-10-22T01:12:43;25.60;74.70
47174;DHT22;36730;49.036;9.094;2022-10-22T01:20:38;25.50;75.10
47174;DHT22;36730;49.036;9.094;2022-10-22T01:25:58;25.50;74.50
47174;DHT22;36730;49.036;9.094;2022-10-22T01:28:49;25.50;74.70
47174;DHT22;36730;49.036;9.094;2022-10-22T01:31:17;25.60;74.10
47174;DHT22;36730;49.036;9.094;2022-10-22T01:33:45;25.50;74.40
47174;DHT22;36730;49.036;9.094;2022-10-22T01:36:13;25.50;74.40
47174;DHT22;36730;49.036;9.094;2022-10-22T01:38:40;25.50;74.30
47174;DHT22;36730;49.036;9.094;2022-10-22T01:41:07;25.50;74.20
47174;DHT22;36730;49.036;9.094;2022-10-22T01:43:33;25.50;74.20
47174;DHT22;36730;49.036;9.094;2022-10-22T01:46:02;25.60;74.10
47174;DHT22;36730;49.036;9.094;2022-10-22T01:49:07;25.60;74.20
47174;DHT22;36730;49.036;9.094;2022-10-22T01:52:06;25.50;73.90
47174;DHT22;36730;49.036;9.094;2022-10-22T01:54:51;25.50;73.70
47174;DHT22;36730;49.036;9.094;2022-10-22T01:59:59;25.50;73.70
47174;DHT22;36730;49.036;9.094;2022-10-22T02:07:44;25.50;73.70
47174;DHT22;36730;49.036;9.094;2022-10-22T02:10:12;25.50;73.90
47174;DHT22;36730;49.036;9.094;2022-10-22T02:12:39;25.50;74.10
47174;DHT22;36730;49.036;9.094;2022-10-22T02:15:07;25.50;74.30
47174;DHT22;36730;49.036;9.094;2022-10-22T02:17:34;25.40;73.80
47174;DHT22;36730;49.036;9.094;2022-10-22T02:20:07;25.50;73.70
47174;DHT22;36730;49.036;9.094;2022-10-22T02:22:34;25.50;73.60
47174;DHT22;36730;49.036;9.094;2022-10-22T02:25:02;25.50;73.80
47174;DHT22;36730;49.036;9.094;2022-10-22T02:27:50;25.50;73.60
47174;DHT22;36730;49.036;9.094;2022-10-22T02:30:20;25.50;73.20
47174;DHT22;36730;49.036;9.094;2022-10-22T02:33:04;25.50;73.20
47174;DHT22;36730;49.036;9.094;2022-10-22T02:35:31;25.50;73.20
47174;DHT22;36730;49.036;9.094;2022-10-22T02:37:58;25.50;74.10
47174;DHT22;36730;49.036;9.094;2022-10-22T02:40:24;25.50;73.50
47174;DHT22;36730;49.036;9.094;2022-10-22T02:42:50;25.50;73.60
47174;DHT22;36730;49.036;9.094;2022-10-22T02:45:18;25.50;73.60
47174;DHT22;36730;49.036;9.094;2022-10-22T02:47:44;25.50;73.70
47174;DHT22;36730;49.036;9.094;2022-10-22T02:50:10;25.50;73.60
47174;DHT22;36730;49.036;9.094;2022-10-22T02:52:36;25.50;73.50
47174;DHT22;36730;49.036;9.094;2022-10-22T02:55:02;25.50;73.60
47174;DHT22;36730;49.036;9.094;2022-10-22T02:57:27;25.50;73.40
47174;DHT22;36730;49.036;9.094;2022-10-22T02:59:53;25.50;73.50
47174;DHT22;36730;49.036;9.094;2022-10-22T03:02:18;25.50;73.60
47174;DHT22;36730;49.036;9.094;2022-10-22T03:04:44;25.40;73.50
47174;DHT22;36730;49.036;9.094;2022-10-22T03:07:10;25.40;73.30
47174;DHT22;36730;49.036;9.094;2022-10-22T03:09:35;25.40;73.10
47174;DHT22;36730;49.036;9.094;2022-10-22T03:12:01;25.50;73.00
47174;DHT22;36730;49.036;9.094;2022-10-22T03:14:26;25.50;72.90
47174;DHT22;36730;49.036;9.094;2022-10-22T03:16:52;25.50;72.70
47174;DHT22;36730;49.036;9.094;2022-10-22T03:19:17;25.50;72.50
47174;DHT22;36730;49.036;9.094;2022-10-22T03:21:50;25.50;72.30
47174;DHT22;36730;49.036;9.094;2022-10-22T03:24:24;25.50;72.10
47174;DHT22;36730;49.036;9.094;2022-10-22T03:26:52;25.50;72.00
47174;DHT22;36730;49.036;9.094;2022-10-22T03:29:18;25.50;71.90
47174;DHT22;36730;49.036;9.094;2022-10-22T03:31:46;25.50;71.90
47174;DHT22;36730;49.036;9.094;2022-10-22T03:34:12;25.50;72.50
47174;DHT22;36730;49.036;9.094;2022-10-22T03:36:38;25.40;72.50
47174;DHT22;36730;49.036;9.094;2022-10-22T03:39:05;25.40;72.00
47174;DHT22;36730;49.036;9.094;2022-10-22T03:41:31;25.40;71.70
47174;DHT22;36730;49.036;9.094;2022-10-22T03:43:57;25.40;72.00
47174;DHT22;36730;49.036;9.094;2022-10-22T03:46:24;25.40;71.90
47174;DHT22;36730;49.036;9.094;2022-10-22T03:48:50;25.40;71.90
47174;DHT22;36730;49.036;9.094;2022-10-22T03:51:15;25.40;72.00
47174;DHT22;36730;49.036;9.094;2022-10-22T03:53:41;25.40;72.00
47174;DHT22;36730;49.036;9.094;2022-10-22T03:56:08;25.40;72.40
47174;DHT22;36730;49.036;9.094;2022-10-22T03:58:34;25.40;73.00
47174;DHT22;36730;49.036;9.094;2022-10-22T04:01:08;25.40;72.60
47174;DHT22;36730;49.036;9.094;2022-10-22T04:03:34;25.40;72.60
47174;DHT22;36730;49.036;9.094;2022-10-22T04:06:04;25.40;72.70
47174;DHT22;36730;49.036;9.094;2022-10-22T04:08:30;25.40;72.60
47174;DHT22;36730;49.036;9.094;2022-10-22T04:10:56;25.40;72.60
47174;DHT22;36730;49.036;9.094;2022-10-22T04:13:21;25.40;72.50
47174;DHT22;36730;49.036;9.094;2022-10-22T04:15:47;25.40;72.40
47174;DHT22;36730;49.036;9.094;2022-10-22T04:18:13;25.40;72.30
47174;DHT22;36730;49.036;9.094;2022-10-22T04:20:40;25.50;72.40
47174;DHT22;36730;49.036;9.094;2022-10-22T04:23:06;25.50;72.40
47174;DHT22;36730;49.036;9.094;2022-10-22T04:25:31;25.50;73.00
47174;DHT22;36730;49.036;9.094;2022-10-22T04:27:57;25.50;72.30
47174;DHT22;36730;49.036;9.094;2022-10-22T04:30:22;25.50;72.30
47174;DHT22;36730;49.036;9.094;2022-10-22T04:32:48;25.50;72.30
47174;DHT22;36730;49.036;9.094;2022-10-22T04:35:13;25.50;72.20
47174;DHT22;36730;49.036;9.094;2022-10-22T04:37:39;25.50;72.50
47174;DHT22;36730;49.036;9.094;2022-10-22T04:40:05;25.50;72.50
47174;DHT22;36730;49.036;9.094;2022-10-22T04:42:31;25.50;72.40
47174;DHT22;36730;49.036;9.094;2022-10-22T04:44:56;25.50;72.50
47174;DHT22;36730;49.036;9.094;2022-10-22T04:47:22;25.50;72.70
47174;DHT22;36730;49.036;9.094;2022-10-22T04:49:47;25.50;73.30
47174;DHT22;36730;49.036;9.094;2022-10-22T04:52:13;25.50;72.40
47174;DHT22;36730;49.036;9.094;2022-10-22T04:54:38;25.50;72.30
47174;DHT22;36730;49.036;9.094;2022-10-22T04:57:04;25.50;72.20
47174;DHT22;36730;49.036;9.094;2022-10-22T04:59:29;25.50;72.30
47174;DHT22;36730;49.036;9.094;2022-10-22T05:01:55;25.50;72.20
47174;DHT22;36730;49.036;9.094;2022-10-22T05:04:20;25.50;72.30
47174;DHT22;36730;49.036;9.094;2022-10-22T05:06:46;25.50;72.10
47174;DHT22;36730;49.036;9.094;2022-10-22T05:09:14;25.50;72.00
47174;DHT22;36730;49.036;9.094;2022-10-22T05:11:42;25.50;71.90
47174;DHT22;36730;49.036;9.094;2022-10-22T05:14:11;25.50;71.90
47174;DHT22;36730;49.036;9.094;2022-10-22T05:16:37;25.50;71.80
47174;DHT22;36730;49.036;9.094;2022-10-22T05:19:03;25.50;72.10
47174;DHT22;36730;49.036;9.094;2022-10-22T05:21:29;25.50;72.00
47174;DHT22;36730;49.036;9.094;2022-10-22T05:23:56;25.50;72.10
47174;DHT22;36730;49.036;9.094;2022-10-22T05:26:24;25.50;72.10
47174;DHT22;36730;49.036;9.094;2022-10-22T05:28:50;25.50;72.40
47174;DHT22;36730;49.036;9.094;2022-10-22T05:31:16;25.60;72.10
47174;DHT22;36730;49.036;9.094;2022-10-22T05:33:42;25.50;71.80
47174;DHT22;36730;49.036;9.094;2022-10-22T05:36:08;25.60;71.40
47174;DHT22;36730;49.036;9.094;2022-10-22T05:38:35;25.50;71.00
47174;DHT22;36730;49.036;9.094;2022-10-22T05:41:05;25.50;71.60
47174;DHT22;36730;49.036;9.094;2022-10-22T05:43:31;25.50;71.40
47174;DHT22;36730;49.036;9.094;2022-10-22T05:46:14;25.50;71.20
47174;DHT22;36730;49.036;9.094;2022-10-22T05:48:40;25.50;70.70
47174;DHT22;36730;49.036;9.094;2022-10-22T05:51:07;25.50;70.70
47174;DHT22;36730;49.036;9.094;2022-10-22T05:53:36;25.50;70.50
47174;DHT22;36730;49.036;9.094;2022-10-22T05:56:04;25.50;70.40
47174;DHT22;36730;49.036;9.094;2022-10-22T05:58:30;25.50;69.90
47174;DHT22;36730;49.036;9.094;2022-10-22T06:01:34;25.50;69.60
47174;DHT22;36730;49.036;9.094;2022-10-22T06:04:01;25.50;70.20
47174;DHT22;36730;49.036;9.094;2022-10-22T06:06:33;25.50;69.50
47174;DHT22;36730;49.036;9.094;2022-10-22T06:11:46;25.50;68.90
47174;DHT22;36730;49.036;9.094;2022-10-22T06:14:11;25.50;69.20
47174;DHT22;36730;49.036;9.094;2022-10-22T06:16:37;25.40;68.70
47174;DHT22;36730;49.036;9.094;2022-10-22T06:19:02;25.40;69.00
47174;DHT22;36730;49.036;9.094;2022-10-22T06:21:29;25.40;69.30
47174;DHT22;36730;49.036;9.094;2022-10-22T06:23:56;25.40;69.50
47174;DHT22;36730;49.036;9.094;2022-10-22T06:26:22;25.40;69.20
47174;DHT22;36730;49.036;9.094;2022-10-22T06:28:48;25.40;69.30
47174;DHT22;36730;49.036;9.094;2022-10-22T06:31:13;25.40;69.30
47174;DHT22;36730;49.036;9.094;2022-10-22T06:33:39;25.40;69.40
47174;DHT22;36730;49.036;9.094;2022-10-22T06:36:12;25.40;69.30
47174;DHT22;36730;49.036;9.094;2022-10-22T06:38:38;25.30;69.00
47174;DHT22;36730;49.036;9.094;2022-10-22T06:41:06;25.30;69.10
47174;DHT22;36730;49.036;9.094;2022-10-22T06:43:32;25.30;69.30
47174;DHT22;36730;49.036;9.094;2022-10-22T06:45:59;25.30;69.20
47174;DHT22;36730;49.036;9.094;2022-10-22T06:48:25;25.30;69.40
47174;DHT22;36730;49.036;9.094;2022-10-22T06:50:50;25.30;69.60
47174;DHT22;36730;49.036;9.094;2022-10-22T06:53:16;25.30;69.70
47174;DHT22;36730;49.036;9.094;2022-10-22T06:55:41;25.30;70.10
47174;DHT22;36730;49.036;9.094;2022-10-22T06:58:07;25.30;69.30
47174;DHT22;36730;49.036;9.094;2022-10-22T07:00:32;25.30;69.80
47174;DHT22;36730;49.036;9.094;2022-10-22T07:02:58;25.20;69.50
47174;DHT22;36730;49.036;9.094;2022-10-22T07:05:23;25.20;69.90
47174;DHT22;36730;49.036;9.094;2022-10-22T07:07:49;25.20;69.90
47174;DHT22;36730;49.036;9.094;2022-10-22T07:10:14;25.20;69.60
47174;DHT22;36730;49.036;9.094;2022-10-22T07:12:40;25.20;69.50
47174;DHT22;36730;49.036;9.094;2022-10-22T07:15:06;25.20;69.90
47174;DHT22;36730;49.036;9.094;2022-10-22T07:17:31;25.30;70.50
47174;DHT22;36730;49.036;9.094;2022-10-22T07:19:57;25.30;70.30
47174;DHT22;36730;49.036;9.094;2022-10-22T07:22:22;25.30;70.50
47174;DHT22;36730;49.036;9.094;2022-10-22T07:24:48;25.30;70.80
47174;DHT22;36730;49.036;9.094;2022-10-22T07:27:13;25.30;70.80
47174;DHT22;36730;49.036;9.094;2022-10-22T07:29:39;25.30;70.70
47174;DHT22;36730;49.036;9.094;2022-10-22T07:32:04;25.30;70.70
47174;DHT22;36730;49.036;9.094;2022-10-22T07:34:30;25.30;71.00
47174;DHT22;36730;49.036;9.094;2022-10-22T07:36:55;25.20;70.60
47174;DHT22;36730;49.036;9.094;2022-10-22T07:39:22;25.30;71.40
47174;DHT22;36730;49.036;9.094;2022-10-22T07:41:47;25.30;71.30
47174;DHT22;36730;49.036;9.094;2022-10-22T07:44:13;25.20;71.00
47174;DHT22;36730;49.036;9.094;2022-10-22T07:46:38;25.30;71.20
47174;DHT22;36730;49.036;9.094;2022-10-22T07:49:04;25.30;71.40
47174;DHT22;36730;49.036;9.094;2022-10-22T07:51:29;25.30;71.40
47174;DHT22;36730;49.036;9.094;2022-10-22T07:53:55;25.30;71.50
47174;DHT22;36730;49.036;9.094;2022-10-22T07:56:20;25.30;71.70
47174;DHT22;36730;49.036;9.094;2022-10-22T07:58:46;25.30;71.60
47174;DHT22;36730;49.036;9.094;2022-10-22T08:01:11;25.30;71.50
47174;DHT22;36730;49.036;9.094;2022-10-22T08:03:37;25.30;71.70
47174;DHT22;36730;49.036;9.094;2022-10-22T08:06:03;25.30;71.60
47174;DHT22;36730;49.036;9.094;2022-10-22T08:08:28;25.30;71.70
47174;DHT22;36730;49.036;9.094;2022-10-22T08:10:56;25.30;72.20
47174;DHT22;36730;49.036;9.094;2022-10-22T08:13:23;25.30;72.10
47174;DHT22;36730;49.036;9.094;2022-10-22T08:15:48;25.30;72.20
47174;DHT22;36730;49.036;9.094;2022-10-22T08:18:14;25.30;71.80
47174;DHT22;36730;49.036;9.094;2022-10-22T08:20:40;25.40;71.90
47174;DHT22;36730;49.036;9.094;2022-10-22T08:23:06;25.40;71.70
47174;DHT22;36730;49.036;9.094;2022-10-22T08:25:32;25.40;71.80
47174;DHT22;36730;49.036;9.094;2022-10-22T08:27:57;25.40;71.80
47174;DHT22;36730;49.036;9.094;2022-10-22T08:30:23;25.40;71.70
47174;DHT22;36730;49.036;9.094;2022-10-22T08:32:50;25.40;71.70
47174;DHT22;36730;49.036;9.094;2022-10-22T08:35:16;25.50;71.90
47174;DHT22;36730;49.036;9.094;2022-10-22T08:37:42;25.50;71.80
47174;DHT22;36730;49.036;9.094;2022-10-22T08:40:13;25.50;72.00
47174;DHT22;36730;49.036;9.094;2022-10-22T08:43:20;25.60;73.00
47174;DHT22;36730;49.036;9.094;2022-10-22T08:50:53;25.60;71.50
47174;DHT22;36730;49.036;9.094;2022-10-22T08:53:26;25.60;73.10
47174;DHT22;36730;49.036;9.094;2022-10-22T08:55:55;25.70;71.80
47174;DHT22;36730;49.036;9.094;2022-10-22T08:58:32;25.70;71.80
47174;DHT22;36730;49.036;9.094;2022-10-22T09:01:31;25.70;71.40
47174;DHT22;36730;49.036;9.094;2022-10-22T09:04:07;25.80;72.80
47174;DHT22;36730;49.036;9.094;2022-10-22T09:06:36;25.80;71.40
47174;DHT22;36730;49.036;9.094;2022-10-22T09:09:15;25.80;71.20
47174;DHT22;36730;49.036;9.094;2022-10-22T09:11:44;25.80;71.00
47174;DHT22;36730;49.036;9.094;2022-10-22T09:14:14;25.90;71.30
47174;DHT22;36730;49.036;9.094;2022-10-22T09:24:57;25.90;70.70
47174;DHT22;36730;49.036;9.094;2022-10-22T09:27:28;25.90;70.70
47174;DHT22;36730;49.036;9.094;2022-10-22T09:29:54;26.00;70.60
47174;DHT22;36730;49.036;9.094;2022-10-22T09:32:20;26.00;71.00
47174;DHT22;36730;49.036;9.094;2022-10-22T09:34:47;26.00;70.60
47174;DHT22;36730;49.036;9.094;2022-10-22T09:37:16;26.10;71.10
47174;DHT22;36730;49.036;9.094;2022-10-22T09:39:51;26.10;70.60
47174;DHT22;36730;49.036;9.094;2022-10-22T09:42:19;26.10;70.60
47174;DHT22;36730;49.036;9.094;2022-10-22T09:44:52;26.10;71.30
47174;DHT22;36730;49.036;9.094;2022-10-22T09:47:37;26.10;70.80
47174;DHT22;36730;49.036;9.094;2022-10-22T09:50:18;26.10;71.60
47174;DHT22;36730;49.036;9.094;2022-10-22T09:52:45;26.10;71.10
47174;DHT22;36730;49.036;9.094;2022-10-22T09:55:18;26.10;71.10
47174;DHT22;36730;49.036;9.094;2022-10-22T09:57:52;26.20;70.60
47174;DHT22;36730;49.036;9.094;2022-10-22T10:00:19;26.20;70.10
47174;DHT22;36730;49.036;9.094;2022-10-22T10:02:45;26.20;70.10
47174;DHT22;36730;49.036;9.094;2022-10-22T10:05:19;26.20;70.50
47174;DHT22;36730;49.036;9.094;2022-10-22T10:07:44;26.20;70.40
47174;DHT22;36730;49.036;9.094;2022-10-22T10:10:47;26.30;71.60
47174;DHT22;36730;49.036;9.094;2022-10-22T10:21:56;26.40;69.90
47174;DHT22;36730;49.036;9.094;2022-10-22T10:24:49;26.50;69.50
47174;DHT22;36730;49.036;9.094;2022-10-22T10:27:27;26.50;69.90
47174;DHT22;36730;49.036;9.094;2022-10-22T10:30:17;26.50;70.70
47174;DHT22;36730;49.036;9.094;2022-10-22T10:35:54;26.50;69.60
47174;DHT22;36730;49.036;9.094;2022-10-22T10:38:44;26.60;70.10
47174;DHT22;36730;49.036;9.094;2022-10-22T10:47:40;26.70;70.50
47174;DHT22;36730;49.036;9.094;2022-10-22T10:55:41;26.70;68.60
47174;DHT22;36730;49.036;9.094;2022-10-22T11:04:18;26.80;70.50
47174;DHT22;36730;49.036;9.094;2022-10-22T11:06:49;26.80;69.10
47174;DHT22;36730;49.036;9.094;2022-10-22T11:09:23;26.80;68.40
47174;DHT22;36730;49.036;9.094;2022-10-22T11:11:54;26.90;69.50
47174;DHT22;36730;49.036;9.094;2022-10-22T11:14:48;26.90;68.60
47174;DHT22;36730;49.036;9.094;2022-10-22T11:17:14;26.90;69.10
47174;DHT22;36730;49.036;9.094;2022-10-22T11:19:58;26.90;69.60
47174;DHT22;36730;49.036;9.094;2022-10-22T11:25:37;27.00;69.30
47174;DHT22;36730;49.036;9.094;2022-10-22T11:28:08;27.00;67.30
47174;DHT22;36730;49.036;9.094;2022-10-22T11:30:37;27.00;68.20
47174;DHT22;36730;49.036;9.094;2022-10-22T11:33:08;27.10;68.10
47174;DHT22;36730;49.036;9.094;2022-10-22T11:35:41;27.10;67.70
47174;DHT22;36730;49.036;9.094;2022-10-22T11:38:13;27.20;68.40
47174;DHT22;36730;49.036;9.094;2022-10-22T11:40:55;27.20;67.60
47174;DHT22;36730;49.036;9.094;2022-10-22T11:43:31;27.20;68.00
47174;DHT22;36730;49.036;9.094;2022-10-22T11:48:41;27.30;67.70
47174;DHT22;36730;49.036;9.094;2022-10-22T11:51:33;27.30;67.20
47174;DHT22;36730;49.036;9.094;2022-10-22T11:54:02;27.30;67.00
47174;DHT22;36730;49.036;9.094;2022-10-22T11:56:38;27.30;67.70
47174;DHT22;36730;49.036;9.094;2022-10-22T11:59:37;27.30;66.70
47174;DHT22;36730;49.036;9.094;2022-10-22T12:01:54;27.40;65.90
47174;DHT22;36730;49.036;9.094;2022-10-22T12:04:21;27.40;66.40
47174;DHT22;36730;49.036;9.094;2022-10-22T12:07:01;27.40;66.50
47174;DHT22;36730;49.036;9.094;2022-10-22T12:09:29;27.40;65.40
47174;DHT22;36730;49.036;9.094;2022-10-22T12:12:23;27.40;65.50
47174;DHT22;36730;49.036;9.094;2022-10-22T12:14:56;27.50;65.50
47174;DHT22;36730;49.036;9.094;2022-10-22T12:17:22;27.50;65.50
47174;DHT22;36730;49.036;9.094;2022-10-22T12:20:12;27.50;66.90
47174;DHT22;36730;49.036;9.094;2022-10-22T12:22:38;27.50;65.60
47174;DHT22;36730;49.036;9.094;2022-10-22T12:25:18;27.50;65.90
47174;DHT22;36730;49.036;9.094;2022-10-22T12:27:50;27.50;62.40
47174;DHT22;36730;49.036;9.094;2022-10-22T12:30:23;27.50;60.70
47174;DHT22;36730;49.036;9.094;2022-10-22T12:32:55;27.40;60.50
47174;DHT22;36730;49.036;9.094;2022-10-22T12:35:24;27.40;60.40
47174;DHT22;36730;49.036;9.094;2022-10-22T12:37:51;27.30;60.50
47174;DHT22;36730;49.036;9.094;2022-10-22T12:40:22;27.20;60.70
47174;DHT22;36730;49.036;9.094;2022-10-22T12:42:53;27.10;60.10
47174;DHT22;36730;49.036;9.094;2022-10-22T12:45:20;27.10;60.80
47174;DHT22;36730;49.036;9.094;2022-10-22T12:47:51;27.10;61.00
47174;DHT22;36730;49.036;9.094;2022-10-22T12:50:28;27.20;60.50
47174;DHT22;36730;49.036;9.094;2022-10-22T12:52:55;27.20;60.70
47174;DHT22;36730;49.036;9.094;2022-10-22T12:55:22;27.20;61.00
47174;DHT22;36730;49.036;9.094;2022-10-22T12:57:50;27.20;60.50
47174;DHT22;36730;49.036;9.094;2022-10-22T13:02:45;27.30;60.60
47174;DHT22;36730;49.036;9.094;2022-10-22T13:07:47;27.30;61.40
47174;DHT22;36730;49.036;9.094;2022-10-22T13:10:18;27.40;62.10
47174;DHT22;36730;49.036;9.094;2022-10-22T13:12:49;27.40;61.30
47174;DHT22;36730;49.036;9.094;2022-10-22T13:17:46;27.50;60.10
47174;DHT22;36730;49.036;9.094;2022-10-22T13:20:21;27.50;60.50
47174;DHT22;36730;49.036;9.094;2022-10-22T13:22:58;27.50;61.30
47174;DHT22;36730;49.036;9.094;2022-10-22T13:25:35;27.60;60.00
47174;DHT22;36730;49.036;9.094;2022-10-22T13:30:35;27.60;60.00
47174;DHT22;36730;49.036;9.094;2022-10-22T13:33:44;27.60;59.80
47174;DHT22;36730;49.036;9.094;2022-10-22T13:35:51;27.60;60.00
47174;DHT22;36730;49.036;9.094;2022-10-22T13:38:19;27.60;60.80
47174;DHT22;36730;49.036;9.094;2022-10-22T13:40:46;27.60;60.20
47174;DHT22;36730;49.036;9.094;2022-10-22T13:43:11;27.70;60.20
47174;DHT22;36730;49.036;9.094;2022-10-22T13:45:37;27.70;60.40
47174;DHT22;36730;49.036;9.094;2022-10-22T13:48:03;27.70;60.10
47174;DHT22;36730;49.036;9.094;2022-10-22T13:50:29;27.70;60.30
47174;DHT22;36730;49.036;9.094;2022-10-22T13:52:56;27.70;61.20
47174;DHT22;36730;49.036;9.094;2022-10-22T13:55:27;27.70;60.40
47174;DHT22;36730;49.036;9.094;2022-10-22T13:58:05;27.80;59.70
47174;DHT22;36730;49.036;9.094;2022-10-22T14:00:36;27.70;59.60
47174;DHT22;36730;49.036;9.094;2022-10-22T14:03:02;27.70;59.80
47174;DHT22;36730;49.036;9.094;2022-10-22T14:05:29;27.70;59.50
47174;DHT22;36730;49.036;9.094;2022-10-22T14:07:58;27.70;59.40
47174;DHT22;36730;49.036;9.094;2022-10-22T14:10:24;27.70;59.40
47174;DHT22;36730;49.036;9.094;2022-10-22T14:12:51;27.70;59.40
47174;DHT22;36730;49.036;9.094;2022-10-22T14:15:21;27.70;59.20
47174;DHT22;36730;49.036;9.094;2022-10-22T14:17:55;27.70;59.30
47174;DHT22;36730;49.036;9.094;2022-10-22T14:20:33;27.70;59.20
47174;DHT22;36730;49.036;9.094;2022-10-22T14:23:07;27.70;59.60
47174;DHT22;36730;49.036;9.094;2022-10-22T14:25:35;27.80;60.30
47174;DHT22;36730;49.036;9.094;2022-10-22T14:28:01;27.80;59.90
47174;DHT22;36730;49.036;9.094;2022-10-22T14:30:27;27.80;59.60
47174;DHT22;36730;49.036;9.094;2022-10-22T14:32:54;27.80;61.00
47174;DHT22;36730;49.036;9.094;2022-10-22T14:35:22;27.80;59.90
47174;DHT22;36730;49.036;9.094;2022-10-22T14:37:48;27.80;59.90
47174;DHT22;36730;49.036;9.094;2022-10-22T14:40:16;27.80;60.40
47174;DHT22;36730;49.036;9.094;2022-10-22T14:42:44;27.80;60.00
47174;DHT22;36730;49.036;9.094;2022-10-22T14:45:23;27.80;59.80
47174;DHT22;36730;49.036;9.094;2022-10-22T14:47:49;27.80;59.90
47174;DHT22;36730;49.036;9.094;2022-10-22T14:50:16;27.80;60.60
47174;DHT22;36730;49.036;9.094;2022-10-22T14:52:43;27.80;60.30
47174;DHT22;36730;49.036;9.094;2022-10-22T14:55:09;27.80;60.20
47174;DHT22;36730;49.036;9.094;2022-10-22T14:57:35;27.80;61.00
47174;DHT22;36730;49.036;9.094;2022-10-22T15:00:07;27.80;60.90
47174;DHT22;36730;49.036;9.094;2022-10-22T15:02:33;27.80;60.50
47174;DHT22;36730;49.036;9.094;2022-10-22T15:04:59;27.80;60.40
47174;DHT22;36730;49.036;9.094;2022-10-22T15:07:24;27.80;60.30
47174;DHT22;36730;49.036;9.094;2022-10-22T15:09:52;27.80;60.40
47174;DHT22;36730;49.036;9.094;2022-10-22T15:12:18;27.80;60.80
47174;DHT22;36730;49.036;9.094;2022-10-22T15:14:45;27.80;60.90
47174;DHT22;36730;49.036;9.094;2022-10-22T15:17:11;27.90;60.50
47174;DHT22;36730;49.036;9.094;2022-10-22T15:19:37;27.90;60.50
47174;DHT22;36730;49.036;9.094;2022-10-22T15:22:02;27.90;62.50
47174;DHT22;36730;49.036;9.094;2022-10-22T15:24:28;27.90;62.20
47174;DHT22;36730;49.036;9.094;2022-10-22T15:26:54;27.90;61.90
47174;DHT22;36730;49.036;9.094;2022-10-22T15:29:19;27.90;61.60
47174;DHT22;36730;49.036;9.094;2022-10-22T15:31:50;27.90;62.40
47174;DHT22;36730;49.036;9.094;2022-10-22T15:34:31;27.90;62.90
47174;DHT22;36730;49.036;9.094;2022-10-22T15:36:59;28.00;63.90
47174;DHT22;36730;49.036;9.094;2022-10-22T15:39:26;27.90;64.10
47174;DHT22;36730;49.036;9.094;2022-10-22T15:41:53;27.90;63.60
47174;DHT22;36730;49.036;9.094;2022-10-22T15:44:23;27.90;63.80
47174;DHT22;36730;49.036;9.094;2022-10-22T15:46:50;27.90;64.00
47174;DHT22;36730;49.036;9.094;2022-10-22T15:49:16;27.90;63.30
47174;DHT22;36730;49.036;9.094;2022-10-22T15:51:42;27.90;63.20
47174;DHT22;36730;49.036;9.094;2022-10-22T15:54:33;27.90;64.00
47174;DHT22;36730;49.036;9.094;2022-10-22T15:56:59;28.00;64.60
47174;DHT22;36730;49.036;9.094;2022-10-22T15:59:27;27.90;63.80
47174;DHT22;36730;49.036;9.094;2022-10-22T16:01:53;27.90;66.20
47174;DHT22;36730;49.036;9.094;2022-10-22T16:04:19;27.90;63.90
47174;DHT22;36730;49.036;9.094;2022-10-22T16:06:47;27.90;64.20
47174;DHT22;36730;49.036;9.094;2022-10-22T16:09:16;27.90;64.20
47174;DHT22;36730;49.036;9.094;2022-10-22T16:11:42;27.90;64.70
47174;DHT22;36730;49.036;9.094;2022-10-22T16:14:09;27.90;64.80
47174;DHT22;36730;49.036;9.094;2022-10-22T16:16:36;27.90;64.50
47174;DHT22;36730;49.036;9.094;2022-10-22T16:19:04;27.90;64.60
47174;DHT22;36730;49.036;9.094;2022-10-22T16:21:29;27.90;65.60
47174;DHT22;36730;49.036;9.094;2022-10-22T16:23:55;27.80;65.40
47174;DHT22;36730;49.036;9.094;2022-10-22T16:26:21;27.80;65.30
47174;DHT22;36730;49.036;9.094;2022-10-22T16:28:47;27.80;66.10
47174;DHT22;36730;49.036;9.094;2022-10-22T16:31:14;27.80;65.50
47174;DHT22;36730;49.036;9.094;2022-10-22T16:33:39;27.80;66.10
47174;DHT22;36730;49.036;9.094;2022-10-22T16:36:07;27.80;65.50
47174;DHT22;36730;49.036;9.094;2022-10-22T16:38:33;27.70;65.50
47174;DHT22;36730;49.036;9.094;2022-10-22T16:41:10;27.70;65.50
47174;DHT22;36730;49.036;9.094;2022-10-22T16:43:36;27.70;65.60
47174;DHT22;36730;49.036;9.094;2022-10-22T16:46:02;27.70;66.30
47174;DHT22;36730;49.036;9.094;2022-10-22T16:48:28;27.70;66.30
47174;DHT22;36730;49.036;9.094;2022-10-22T16:50:54;27.70;65.70
47174;DHT22;36730;49.036;9.094;2022-10-22T16:53:19;27.70;65.90
47174;DHT22;36730;49.036;9.094;2022-10-22T16:55:45;27.60;65.40
47174;DHT22;36730;49.036;9.094;2022-10-22T16:58:10;27.70;66.30
47174;DHT22;36730;49.036;9.094;2022-10-22T17:00:36;27.60;65.90
47174;DHT22;36730;49.036;9.094;2022-10-22T17:03:02;27.60;66.30